createdAt,value
2023-04-16T00:01:07.732Z,74.20
2023-04-16T00:03:40.385Z,80.10
2023-04-16T00:06:13.458Z,81.40
2023-04-16T00:08:45.498Z,79.60
2023-04-16T00:11:17.581Z,61.90
2023-04-16T00:13:49.619Z,87.10
2023-04-16T00:16:21.781Z,86.00
2023-04-16T00:18:53.682Z,81.80
2023-04-16T00:21:26.359Z,62.90
2023-04-16T00:26:29.163Z,81.20
2023-04-16T00:29:01.894Z,87.00
2023-04-16T00:31:34.974Z,77.20
2023-04-16T00:34:08.632Z,76.20
2023-04-16T00:36:41.092Z,78.40
2023-04-16T00:39:12.989Z,70.10
2023-04-16T00:41:45.429Z,52.40
2023-04-16T00:44:17.295Z,70.50
2023-04-16T00:46:49.852Z,56.50
2023-04-16T00:49:22.573Z,74.50
2023-04-16T00:51:54.889Z,75.40
2023-04-16T00:54:27.556Z,71.00
2023-04-16T00:57:01.553Z,71.40
2023-04-16T00:59:33.508Z,77.20
2023-04-16T01:02:05.853Z,75.40
2023-04-16T01:04:38.418Z,69.90
2023-04-16T01:07:10.291Z,74.00
2023-04-16T01:09:44.158Z,69.80
2023-04-16T01:12:16.134Z,64.20
2023-04-16T01:14:48.323Z,68.90
2023-04-16T01:17:20.612Z,69.20
2023-04-16T01:19:52.638Z,65.60
2023-04-16T01:22:25.017Z,70.60
2023-04-16T01:24:56.985Z,69.30
2023-04-16T01:27:29.264Z,47.90
2023-04-16T01:30:01.508Z,66.40
2023-04-16T01:32:43.355Z,66.20
2023-04-16T01:35:15.379Z,69.50
2023-04-16T01:37:47.449Z,47.70
2023-04-16T01:40:19.901Z,70.70
2023-04-16T01:42:52.553Z,67.00
2023-04-16T01:45:24.973Z,67.20
2023-04-16T01:47:57.018Z,68.10
2023-04-16T01:50:30.866Z,64.70
2023-04-16T01:53:05.014Z,68.10
2023-04-16T01:55:37.312Z,69.00
2023-04-16T01:58:11.005Z,48.60
2023-04-16T02:00:43.237Z,67.90
2023-04-16T02:03:15.559Z,53.50
2023-04-16T02:05:47.891Z,73.20
2023-04-16T02:08:20.433Z,78.10
2023-04-16T02:10:55.164Z,72.70
2023-04-16T02:13:28.361Z,73.90
2023-04-16T02:16:00.291Z,70.10
2023-04-16T02:18:52.785Z,57.80
2023-04-16T02:21:26.038Z,77.10
2023-04-16T02:23:58.271Z,68.50
2023-04-16T02:26:33.205Z,69.40
2023-04-16T02:29:09.716Z,70.90
2023-04-16T02:31:47.910Z,73.10
2023-04-16T02:34:20.284Z,68.50
2023-04-16T02:36:54.233Z,63.80
2023-04-16T02:39:26.468Z,63.20
2023-04-16T02:41:59.357Z,67.40
2023-04-16T02:44:31.945Z,64.90
2023-04-16T02:47:03.835Z,67.80
2023-04-16T02:49:35.810Z,46.90
2023-04-16T02:52:08.200Z,70.50
2023-04-16T02:54:40.325Z,63.80
2023-04-16T02:57:12.380Z,70.80
2023-04-16T02:59:44.238Z,70.70
2023-04-16T03:02:16.601Z,49.50
2023-04-16T03:07:19.411Z,60.60
2023-04-16T03:09:51.865Z,67.00
2023-04-16T03:12:23.814Z,64.60
2023-04-16T03:14:55.991Z,71.00
2023-04-16T03:17:28.438Z,61.90
2023-04-16T03:20:00.965Z,72.90
2023-04-16T03:22:32.951Z,75.00
2023-04-16T03:25:05.678Z,69.80
2023-04-16T03:27:38.616Z,67.40
2023-04-16T03:30:12.087Z,67.00
2023-04-16T03:32:45.103Z,62.50
2023-04-16T03:35:17.358Z,61.80
2023-04-16T03:37:50.427Z,56.40
2023-04-16T03:40:22.912Z,64.80
2023-04-16T03:45:26.356Z,62.30
2023-04-16T03:47:58.333Z,53.70
2023-04-16T03:50:30.997Z,59.80
2023-04-16T03:53:02.994Z,52.60
2023-04-16T03:55:35.930Z,39.20
2023-04-16T03:58:07.994Z,57.60
2023-04-16T04:00:42.376Z,51.00
2023-04-16T04:03:18.605Z,53.90
2023-04-16T04:05:52.521Z,49.40
2023-04-16T04:08:30.816Z,52.60
2023-04-16T04:11:02.797Z,34.90
2023-04-16T04:13:35.719Z,48.20
2023-04-16T04:16:10.344Z,45.20
2023-04-16T04:18:44.344Z,48.30
2023-04-16T04:21:16.748Z,39.70
2023-04-16T04:23:48.914Z,42.80
2023-04-16T04:26:21.057Z,36.60
2023-04-16T04:28:52.933Z,41.40
2023-04-16T04:31:25.147Z,37.10
2023-04-16T04:33:57.053Z,45.30
2023-04-16T04:36:29.243Z,35.40
2023-04-16T04:39:01.139Z,40.90
2023-04-16T04:41:34.034Z,37.00
2023-04-16T04:44:06.407Z,34.70
2023-04-16T04:46:38.464Z,34.00
2023-04-16T04:49:11.628Z,33.60
2023-04-16T04:51:43.755Z,29.30
2023-04-16T04:54:15.763Z,31.10
2023-04-16T04:56:48.151Z,32.60
2023-04-16T04:59:21.269Z,28.70
2023-04-16T05:01:53.942Z,28.80
2023-04-16T05:04:25.869Z,32.70
2023-04-16T05:06:57.549Z,26.80
2023-04-16T05:09:29.424Z,26.70
2023-04-16T05:12:01.934Z,25.90
2023-04-16T05:14:33.712Z,29.10
2023-04-16T05:17:05.573Z,30.00
2023-04-16T05:19:38.012Z,33.80
2023-04-16T05:22:09.734Z,34.30
2023-04-16T05:24:41.503Z,33.00
2023-04-16T05:27:13.390Z,38.70
2023-04-16T05:29:45.636Z,32.10
2023-04-16T05:34:48.621Z,35.70
2023-04-16T05:37:20.734Z,39.70
2023-04-16T05:39:52.535Z,40.10
2023-04-16T05:42:24.367Z,28.20
2023-04-16T05:44:56.634Z,30.60
2023-04-16T05:47:28.819Z,44.20
2023-04-16T05:50:00.652Z,43.20
2023-04-16T05:52:32.568Z,43.80
2023-04-16T05:55:05.194Z,45.80
2023-04-16T05:57:37.084Z,46.20
2023-04-16T06:00:10.907Z,43.50
2023-04-16T06:02:46.248Z,46.50
2023-04-16T06:05:18.373Z,47.60
2023-04-16T06:07:50.218Z,42.90
2023-04-16T06:10:22.598Z,44.80
2023-04-16T06:12:54.895Z,45.90
2023-04-16T06:15:27.668Z,40.50
2023-04-16T06:20:33.186Z,37.80
2023-04-16T06:23:05.177Z,32.70
2023-04-16T06:25:37.163Z,39.10
2023-04-16T06:28:09.561Z,43.20
2023-04-16T06:30:44.417Z,40.20
2023-04-16T06:33:17.195Z,37.60
2023-04-16T06:35:49.083Z,38.00
2023-04-16T06:38:21.228Z,43.80
2023-04-16T06:40:53.185Z,40.60
2023-04-16T06:43:27.291Z,31.20
2023-04-16T06:46:00.453Z,43.50
2023-04-16T06:48:32.480Z,42.90
2023-04-16T06:51:04.635Z,29.70
2023-04-16T06:53:37.936Z,49.30
2023-04-16T06:56:10.915Z,43.60
2023-04-16T06:58:43.035Z,40.50
2023-04-16T07:01:15.088Z,44.50
2023-04-16T07:03:47.915Z,45.20
2023-04-16T07:06:20.478Z,43.80
2023-04-16T07:08:52.815Z,39.20
2023-04-16T07:11:25.933Z,41.10
2023-04-16T07:13:58.912Z,43.40
2023-04-16T07:16:30.918Z,44.90
2023-04-16T07:19:04.660Z,43.70
2023-04-16T07:24:08.693Z,40.20
2023-04-16T07:26:41.017Z,41.00
2023-04-16T07:29:13.498Z,41.60
2023-04-16T07:31:45.845Z,40.90
2023-04-16T07:34:17.740Z,42.10
2023-04-16T07:36:49.874Z,43.70
2023-04-16T07:39:22.125Z,43.50
2023-04-16T07:41:54.657Z,43.30
2023-04-16T07:44:27.137Z,43.00
2023-04-16T07:46:59.332Z,42.10
2023-04-16T07:49:31.668Z,43.00
2023-04-16T07:52:03.612Z,39.10
2023-04-16T07:54:35.924Z,40.80
2023-04-16T07:57:07.922Z,37.00
2023-04-16T07:59:40.832Z,40.30
2023-04-16T08:02:18.266Z,37.30
2023-04-16T08:04:50.494Z,39.90
2023-04-16T08:07:23.152Z,40.10
2023-04-16T08:09:55.687Z,38.50
2023-04-16T08:12:28.477Z,42.10
2023-04-16T08:15:01.392Z,37.20
2023-04-16T08:17:34.546Z,35.90
2023-04-16T08:20:09.494Z,37.40
2023-04-16T08:22:42.312Z,38.00
2023-04-16T08:25:15.152Z,34.60
2023-04-16T08:30:18.350Z,35.80
2023-04-16T08:32:51.276Z,35.80
2023-04-16T08:35:23.413Z,31.50
2023-04-16T08:37:55.927Z,36.40
2023-04-16T08:40:30.025Z,34.60
2023-04-16T08:43:03.854Z,35.20
2023-04-16T08:45:37.451Z,38.30
2023-04-16T08:48:12.525Z,37.40
2023-04-16T08:50:45.711Z,32.50
2023-04-16T08:53:24.796Z,30.00
2023-04-16T08:56:00.868Z,29.80
2023-04-16T08:58:35.721Z,29.10
2023-04-16T09:01:10.445Z,29.00
2023-04-16T09:03:46.080Z,31.40
2023-04-16T09:06:18.554Z,30.10
2023-04-16T09:08:51.191Z,30.90
2023-04-16T09:11:26.903Z,31.40
2023-04-16T09:14:01.068Z,29.30
2023-04-16T09:16:36.466Z,30.10
2023-04-16T09:19:08.946Z,31.30
2023-04-16T09:24:13.410Z,26.70
2023-04-16T09:26:46.156Z,23.50
2023-04-16T09:29:37.173Z,25.30
2023-04-16T09:32:11.332Z,24.50
2023-04-16T09:35:00.622Z,25.60
2023-04-16T09:37:33.396Z,28.80
2023-04-16T09:42:38.571Z,24.10
2023-04-16T09:45:14.745Z,24.10
2023-04-16T09:47:47.480Z,24.60
2023-04-16T09:52:52.851Z,19.70
2023-04-16T09:55:33.762Z,16.00
2023-04-16T09:58:06.672Z,13.40
2023-04-16T10:03:17.579Z,15.30
2023-04-16T10:05:49.948Z,14.60
2023-04-16T10:08:25.230Z,17.20
2023-04-16T10:10:59.037Z,18.70
2023-04-16T10:13:31.888Z,18.50
2023-04-16T10:16:04.547Z,16.50
2023-04-16T10:18:39.618Z,18.20
2023-04-16T10:21:12.965Z,15.50
2023-04-16T10:23:46.905Z,17.40
2023-04-16T10:26:21.264Z,16.10
2023-04-16T10:28:54.200Z,13.50
2023-04-16T10:31:27.609Z,11.80
2023-04-16T10:34:06.144Z,10.40
2023-04-16T10:36:41.126Z,15.50
2023-04-16T10:39:17.202Z,16.90
2023-04-16T10:41:50.071Z,16.10
2023-04-16T10:44:26.123Z,11.80
2023-04-16T10:46:58.164Z,11.50
2023-04-16T10:49:30.637Z,8.20
2023-04-16T10:54:38.034Z,6.90
2023-04-16T10:57:12.454Z,6.10
2023-04-16T10:59:46.198Z,5.30
2023-04-16T11:02:19.997Z,6.00
2023-04-16T11:04:52.446Z,5.20
2023-04-16T11:07:36.207Z,10.20
2023-04-16T11:10:14.557Z,5.20
2023-04-16T11:12:51.319Z,4.70
2023-04-16T11:15:31.202Z,6.20
2023-04-16T11:18:07.314Z,9.30
2023-04-16T11:20:45.433Z,4.10
2023-04-16T11:23:20.393Z,5.90
2023-04-16T11:26:00.454Z,13.40
2023-04-16T11:28:39.565Z,13.60
2023-04-16T11:31:15.101Z,5.90
2023-04-16T11:33:51.396Z,4.00
2023-04-16T11:38:28.867Z,6.40
2023-04-16T11:39:18.848Z,13.50
2023-04-16T11:41:52.777Z,14.60
2023-04-16T11:44:27.357Z,15.30
2023-04-16T11:46:59.516Z,22.80
2023-04-16T11:49:32.788Z,22.30
2023-04-16T11:52:04.844Z,18.90
2023-04-16T11:54:37.920Z,17.50
2023-04-16T11:57:10.229Z,13.60
2023-04-16T12:00:02.228Z,20.00
2023-04-16T12:02:46.530Z,28.50
2023-04-16T12:05:32.219Z,24.00
2023-04-16T12:08:06.958Z,16.60
2023-04-16T12:10:54.891Z,20.00
2023-04-16T12:13:27.222Z,16.90
2023-04-16T12:15:59.705Z,18.90
2023-04-16T12:21:05.726Z,14.30
2023-04-16T12:23:37.709Z,16.00
2023-04-16T12:26:12.199Z,12.40
2023-04-16T12:28:44.104Z,21.20
2023-04-16T12:34:04.533Z,15.20
2023-04-16T12:36:36.409Z,542.90
2023-04-16T12:39:09.073Z,744.30
2023-04-16T12:44:13.992Z,1013.50
2023-04-16T12:46:46.505Z,398.60
2023-04-16T12:49:19.099Z,641.30
2023-04-16T12:51:51.662Z,128.80
2023-04-16T12:54:24.096Z,40.00
2023-04-16T12:56:55.934Z,204.80
2023-04-16T12:59:28.685Z,254.20
2023-04-16T13:02:01.913Z,19.40
2023-04-16T13:04:34.884Z,84.70
2023-04-16T13:07:08.164Z,68.60
2023-04-16T13:09:40.959Z,66.20
2023-04-16T13:14:46.769Z,22.20
2023-04-16T13:17:18.693Z,37.70
2023-04-16T13:19:50.824Z,15.90
2023-04-16T13:22:22.774Z,25.70
2023-04-16T13:24:55.447Z,20.40
2023-04-16T13:29:58.248Z,12.10
2023-04-16T13:32:30.785Z,13.10
2023-04-16T13:35:02.710Z,14.70
2023-04-16T13:37:35.584Z,11.20
2023-04-16T13:40:09.698Z,13.60
2023-04-16T13:42:42.315Z,12.20
2023-04-16T13:45:14.622Z,11.50
2023-04-16T13:47:48.266Z,10.90
2023-04-16T13:52:51.254Z,11.80
2023-04-16T13:55:23.451Z,12.50
2023-04-16T13:57:56.329Z,11.00
2023-04-16T14:00:29.427Z,9.70
2023-04-16T14:03:02.901Z,9.00
2023-04-16T14:05:35.262Z,11.50
2023-04-16T14:08:07.313Z,15.70
2023-04-16T14:10:39.449Z,11.10
2023-04-16T14:13:13.248Z,12.10
2023-04-16T14:15:45.490Z,13.30
2023-04-16T14:18:17.479Z,17.70
2023-04-16T14:20:49.756Z,25.40
2023-04-16T14:23:21.904Z,29.50
2023-04-16T14:25:56.838Z,105.10
2023-04-16T14:31:00.028Z,36.90
2023-04-16T14:33:32.931Z,35.30
2023-04-16T14:36:05.877Z,30.30
2023-04-16T14:38:38.804Z,88.80
2023-04-16T14:41:12.657Z,43.50
2023-04-16T14:43:44.914Z,33.50
2023-04-16T14:46:18.751Z,19.10
2023-04-16T14:48:51.490Z,13.00
2023-04-16T14:51:23.498Z,18.70
2023-04-16T14:53:55.530Z,25.00
2023-04-16T14:56:28.101Z,25.20
2023-04-16T14:59:00.434Z,30.10
2023-04-16T15:01:34.582Z,45.20
2023-04-16T15:04:06.745Z,17.30
2023-04-16T15:09:10.547Z,16.20
2023-04-16T15:11:42.681Z,14.30
2023-04-16T15:14:14.849Z,20.80
2023-04-16T15:16:49.578Z,16.40
2023-04-16T15:19:21.668Z,11.00
2023-04-16T15:21:54.407Z,12.00
2023-04-16T15:24:27.152Z,9.30
2023-04-16T15:26:59.448Z,8.70
2023-04-16T15:29:32.252Z,10.40
2023-04-16T15:34:34.692Z,13.20
2023-04-16T15:37:06.701Z,12.50
2023-04-16T15:39:38.746Z,26.20
2023-04-16T15:42:13.039Z,34.40
2023-04-16T15:44:45.356Z,35.30
2023-04-16T15:47:17.191Z,41.00
2023-04-16T15:49:49.432Z,35.70
2023-04-16T15:52:21.953Z,39.00
2023-04-16T15:57:24.825Z,32.60
2023-04-16T16:00:06.564Z,38.30
2023-04-16T16:02:39.821Z,31.80
2023-04-16T16:05:14.484Z,39.20
2023-04-16T16:07:47.108Z,38.00
2023-04-16T16:10:20.595Z,39.00
2023-04-16T16:12:52.786Z,38.60
2023-04-16T16:15:24.890Z,43.70
2023-04-16T16:17:58.296Z,45.60
2023-04-16T16:20:30.746Z,40.80
2023-04-16T16:23:03.518Z,40.60
2023-04-16T16:25:35.912Z,34.40
2023-04-16T16:28:08.311Z,31.80
2023-04-16T16:30:40.722Z,31.40
2023-04-16T16:33:12.494Z,33.60
2023-04-16T16:35:44.369Z,32.40
2023-04-16T16:38:16.934Z,25.70
2023-04-16T16:40:48.834Z,30.50
2023-04-16T16:43:21.433Z,35.60
2023-04-16T16:45:53.427Z,33.70
2023-04-16T16:48:37.760Z,35.60
2023-04-16T16:51:34.877Z,43.60
2023-04-16T16:54:13.045Z,38.20
2023-04-16T16:56:45.244Z,41.00
2023-04-16T16:59:17.556Z,32.50
2023-04-16T17:01:49.563Z,44.30
2023-04-16T17:04:24.435Z,52.00
2023-04-16T17:06:57.192Z,50.70
2023-04-16T17:11:59.835Z,45.30
2023-04-16T17:14:31.813Z,44.00
2023-04-16T17:17:04.424Z,50.50
2023-04-16T17:19:36.769Z,50.40
2023-04-16T17:22:08.985Z,50.70
2023-04-16T17:24:41.274Z,51.10
2023-04-16T17:27:13.542Z,56.80
2023-04-16T17:29:45.614Z,51.40
2023-04-16T17:32:17.680Z,52.80
2023-04-16T17:34:53.348Z,49.30
2023-04-16T17:37:37.338Z,50.50
2023-04-16T17:40:12.883Z,54.20
2023-04-16T17:42:45.576Z,55.80
2023-04-16T17:45:19.055Z,64.20
2023-04-16T17:47:51.427Z,76.60
2023-04-16T17:50:24.074Z,57.70
2023-04-16T17:55:26.962Z,60.20
2023-04-16T17:58:00.564Z,59.60
2023-04-16T18:00:32.552Z,276.50
2023-04-16T18:03:04.865Z,262.60
2023-04-16T18:05:36.802Z,83.40
2023-04-16T18:08:09.254Z,78.30
2023-04-16T18:10:42.478Z,79.20
2023-04-16T18:13:14.445Z,69.00
2023-04-16T18:15:51.361Z,73.60
2023-04-16T18:18:24.107Z,57.60
2023-04-16T18:20:56.416Z,66.20
2023-04-16T18:23:28.754Z,61.00
2023-04-16T18:26:00.886Z,65.00
2023-04-16T18:28:33.431Z,61.20
2023-04-16T18:31:07.846Z,109.50
2023-04-16T18:33:55.768Z,93.60
2023-04-16T18:36:31.215Z,60.20
2023-04-16T18:39:03.331Z,62.80
2023-04-16T18:41:36.639Z,55.70
2023-04-16T18:44:10.771Z,61.90
2023-04-16T18:46:42.808Z,57.00
2023-04-16T18:49:15.852Z,49.00
2023-04-16T18:51:48.685Z,52.10
2023-04-16T18:54:21.164Z,50.90
2023-04-16T18:56:53.316Z,47.80
2023-04-16T18:59:26.310Z,58.20
2023-04-16T19:04:41.154Z,51.90
2023-04-16T19:07:13.630Z,46.90
2023-04-16T19:09:45.830Z,50.50
2023-04-16T19:12:18.081Z,46.20
2023-04-16T19:14:50.058Z,55.10
2023-04-16T19:17:22.205Z,48.30
2023-04-16T19:19:54.698Z,55.70
2023-04-16T19:22:27.299Z,45.70
2023-04-16T19:25:02.207Z,48.90
2023-04-16T19:27:38.941Z,52.40
2023-04-16T19:30:15.019Z,45.30
2023-04-16T19:32:55.185Z,43.30
2023-04-16T19:35:30.433Z,47.50
2023-04-16T19:38:03.450Z,51.80
2023-04-16T19:40:35.792Z,46.60
2023-04-16T19:43:08.846Z,50.40
2023-04-16T19:45:47.410Z,49.10
2023-04-16T19:48:19.606Z,47.60
2023-04-16T19:50:52.280Z,46.10
2023-04-16T19:53:31.453Z,52.80
2023-04-16T19:56:04.090Z,47.30
2023-04-16T19:58:36.015Z,49.30
2023-04-16T20:01:28.351Z,33.60
2023-04-16T20:04:00.862Z,49.10
2023-04-16T20:06:33.607Z,50.20
2023-04-16T20:09:06.365Z,51.20
2023-04-16T20:14:09.011Z,43.30
2023-04-16T20:16:41.208Z,47.90
2023-04-16T20:19:18.555Z,48.60
2023-04-16T20:21:50.790Z,53.50
2023-04-16T20:24:23.931Z,47.40
2023-04-16T20:26:56.737Z,48.40
2023-04-16T20:29:29.712Z,44.40
2023-04-16T20:32:04.116Z,44.60
2023-04-16T20:34:38.215Z,41.70
2023-04-16T20:37:10.476Z,44.30
2023-04-16T20:39:45.280Z,45.10
2023-04-16T20:42:21.974Z,45.40
2023-04-16T20:44:57.176Z,41.80
2023-04-16T20:47:29.733Z,47.60
2023-04-16T20:52:34.549Z,42.40
2023-04-16T20:55:09.159Z,47.00
2023-04-16T20:57:41.215Z,47.20
2023-04-16T21:00:16.689Z,43.50
2023-04-16T21:02:49.397Z,43.30
2023-04-16T21:05:21.815Z,45.90
2023-04-16T21:07:55.778Z,46.40
2023-04-16T21:10:28.126Z,48.20
2023-04-16T21:13:00.138Z,39.90
2023-04-16T21:15:34.789Z,46.00
2023-04-16T21:18:07.164Z,46.40
2023-04-16T21:20:40.090Z,48.50
2023-04-16T21:23:12.083Z,45.90
2023-04-16T21:25:48.792Z,46.70
2023-04-16T21:28:21.207Z,43.50
2023-04-16T21:30:55.044Z,42.60
2023-04-16T21:33:27.061Z,44.00
2023-04-16T21:35:58.970Z,42.80
2023-04-16T21:38:31.083Z,48.60
2023-04-16T21:41:03.664Z,39.60
2023-04-16T21:43:36.017Z,41.50
2023-04-16T21:46:08.211Z,45.00
2023-04-16T21:48:40.041Z,40.70
2023-04-16T21:51:11.938Z,40.40
2023-04-16T21:53:44.261Z,43.10
2023-04-16T21:56:16.041Z,28.10
2023-04-16T21:58:47.835Z,40.20
2023-04-16T22:01:19.867Z,30.80
2023-04-16T22:03:52.390Z,47.40
2023-04-16T22:08:54.769Z,44.80
2023-04-16T22:11:29.335Z,35.50
2023-04-16T22:14:01.054Z,40.80
2023-04-16T22:16:33.495Z,25.50
2023-04-16T22:19:05.502Z,42.40
2023-04-16T22:21:37.620Z,21.90
2023-04-16T22:24:10.285Z,36.60
2023-04-16T22:26:41.986Z,37.90
2023-04-16T22:29:13.867Z,32.20
2023-04-16T22:31:45.955Z,38.00
2023-04-16T22:34:18.332Z,35.80
2023-04-16T22:36:50.088Z,31.50
2023-04-16T22:39:22.677Z,40.70
2023-04-16T22:41:54.535Z,36.00
2023-04-16T22:44:26.475Z,40.80
2023-04-16T22:46:58.249Z,39.00
2023-04-16T22:49:33.071Z,29.20
2023-04-16T22:52:05.073Z,39.50
2023-04-16T22:54:36.902Z,39.20
2023-04-16T22:57:08.609Z,47.60
2023-04-16T22:59:40.654Z,43.20
2023-04-16T23:02:12.349Z,35.00
2023-04-16T23:04:44.201Z,40.20
2023-04-16T23:07:16.494Z,36.70
2023-04-16T23:09:48.355Z,38.60
2023-04-16T23:12:20.060Z,36.30
2023-04-16T23:14:53.098Z,23.90
2023-04-16T23:17:24.859Z,33.30
2023-04-16T23:19:56.728Z,37.70
2023-04-16T23:22:28.520Z,27.00
2023-04-16T23:25:00.303Z,36.10
2023-04-16T23:27:32.519Z,37.20
2023-04-16T23:30:05.302Z,39.90
2023-04-16T23:32:37.178Z,36.20
2023-04-16T23:35:10.954Z,42.60
2023-04-16T23:37:43.198Z,35.70
2023-04-16T23:40:15.290Z,27.10
2023-04-16T23:42:47.076Z,38.50
2023-04-16T23:45:19.159Z,38.00
2023-04-16T23:47:51.650Z,45.30
2023-04-16T23:50:23.482Z,40.40
2023-04-16T23:52:55.403Z,34.90
2023-04-16T23:55:27.441Z,25.60
2023-04-16T23:57:59.192Z,41.90
